EFHK/HEL METAR and TAF weather

Enter ICAO airport designator
Station Type Date Time Source
EFHK METAR 2022/01/26 13:50 UTC NOAA

EFHK 261350Z 17013KT 1700 -FZDZSN BKN005 M01/M01 Q1006 TEMPO 4000 BKN004


Station Type Date Time Source
EFHK Decoded METAR 2022/01/26 13:50 UTC NOAA

Helsinki-Vantaa, Finland (EFHK) 60-19N 024-58E 56M
Jan 26, 2022 - 08:50 AM EST / 2022.01.26 1350 UTC
Wind: from the S (170 degrees) at 15 MPH (13 KT):0
Visibility: 1 mile(s):0
Sky conditions: mostly cloudy
Weather: light freezing drizzle, snow
Temperature: 30 F (-1 C)
Windchill: 19 F (-7 C):1
Dew Point: 30 F (-1 C)
Relative Humidity: 100%
Pressure (altimeter): 29.71 in. Hg (1006 hPa)
ob: EFHK 261350Z 17013KT 1700 -FZDZSN BKN005 M01/M01 Q1006 TEMPO 4000 BKN004
cycle: 14

Station Type Date Time Source
EFHK TAF 2022/01/26 13:46 UTC NOAA

TAF
AMD EFHK 261342Z 2613/2712 18009KT 2500 -SN BKN008
TEMPO 2613/2618 1400 -FZDZSN BKN004
BECMG 2621/2623 1000 BR BKN002
TEMPO 2702/2705 0300 FZFG VV001
TEMPO 2705/2709 4000
BECMG 2709/2711 5000 BKN005

Example: see airport list